Time;durP1;ratioP1;P1;durP2;ratioP2;P2;SDS_P1;SDS_P2;PMS_P1;PMS_P2;Temp;Humidity;BMP_temperature;BMP_pressure;BME280_temperature;BME280_humidity;BME280_pressure;Samples;Min_cycle;Max_cycle;Signal;HPM_P1;HPM_P2
2023/07/29 00:00:16;;;;;;;;;;;;;;;;;;6271606;28;20378;-66
2023/07/29 00:03:36;;;;;;;;;;;;;;;;;;6270779;28;20360;-63
2023/07/29 00:06:37;;;;;;;;;;;;;;;;;;6270527;28;19924;-67
2023/07/29 00:09:38;;;;;;;;;;;;;;;;;;6270571;28;20351;-66
2023/07/29 00:12:38;;;;;;;;;;;;;;;;;;6270132;28;20262;-65
2023/07/29 00:15:38;;;;;;;;;;;;;;;;;;6269618;28;20018;-65
2023/07/29 00:18:39;;;;;;;;;;;;;;;;;;6269295;28;19928;-66
2023/07/29 00:21:41;;;;;;;;;;;;;;;;;;6269410;28;20354;-67
2023/07/29 00:24:41;;;;;;;;;;;;;;;;;;6270075;28;19919;-64
2023/07/29 00:27:42;;;;;;;;;;;;;;;;;;6270639;28;20473;-66
2023/07/29 00:30:43;;;;;;;;;;;;;;;;;;6269863;28;19928;-66
2023/07/29 00:33:43;;;;;;;;;;;;;;;;;;6273292;28;19939;-66
2023/07/29 00:36:44;;;;;;;;;;;;;;;;;;6270358;28;19929;-63
2023/07/29 00:39:44;;;;;;;;;;;;;;;;;;6271581;28;20021;-66
2023/07/29 00:42:45;;;;;;;;;;;;;;;;;;6272240;28;20014;-64
2023/07/29 00:45:46;;;;;;;;;;;;;;;;;;6269294;28;20620;-66
2023/07/29 00:48:47;;;;;;;;;;;;;;;;;;6267296;28;20405;-66
2023/07/29 00:51:47;;;;;;;;;;;;;;;;;;6269163;28;20293;-65
2023/07/29 00:54:47;;;;;;;;;;;;;;;;;;6270756;28;20406;-67
2023/07/29 00:57:49;;;;;;;;;;;;;;;;;;6269522;28;19920;-66
2023/07/29 01:00:50;;;;;;;;;;;;;;;;;;6270204;28;20027;-66
2023/07/29 01:03:50;;;;;;;;;;;;;;;;;;6274159;28;19933;-66
2023/07/29 01:07:01;;;;;;;;;;;;;;;;;;6273618;28;20338;-66
2023/07/29 01:10:03;;;;;;;;;;;;;;;;;;6273082;28;20413;-66
2023/07/29 01:13:13;;;;;;;;;;;;;;;;;;6279040;28;20561;-63
2023/07/29 01:16:33;;;;;;;;;;;;;;;;;;6275019;28;19967;-66
2023/07/29 01:19:53;;;;;;;;;;;;;;;;;;6272851;28;20437;-64
2023/07/29 01:22:53;;;;;;;;;;;;;;;;;;6273921;28;19928;-63
2023/07/29 01:25:54;;;;;;;;;;;;;;;;;;6275583;28;19928;-64
2023/07/29 01:28:56;;;;;;;;;;;;;;;;;;6273817;28;19947;-67
2023/07/29 01:32:01;;;;;;;;;;;;;;;;;;6271262;28;20386;-64
2023/07/29 01:35:10;;;;;;;;;;;;;;;;;;6276605;28;20854;-67
2023/07/29 01:38:14;;;;;;;;;;;;;;;;;;6277694;28;19942;-65
2023/07/29 01:41:16;;;;;;;;;;;;;;;;;;6273319;28;20394;-65
2023/07/29 01:44:18;;;;;;;;;;;;;;;;;;6275117;28;20291;-64
2023/07/29 01:47:18;;;;;;;;;;;;;;;;;;6275550;28;19928;-67
2023/07/29 01:50:19;;;;;;;;;;;;;;;;;;6272833;28;19935;-67
2023/07/29 01:53:19;;;;;;;;;;;;;;;;;;6273952;28;19959;-65
2023/07/29 01:56:20;;;;;;;;;;;;;;;;;;6275038;28;19986;-67
2023/07/29 01:59:20;;;;;;;;;;;;;;;;;;6275178;28;19951;-63
2023/07/29 02:02:21;;;;;;;;;;;;;;;;;;6272614;28;20310;-65
2023/07/29 02:05:21;;;;;;;;;;;;;;;;;;6272196;28;19924;-65
2023/07/29 02:08:22;;;;;;;;;;;;;;;;;;6275555;28;19928;-67
2023/07/29 02:11:27;;;;;;;;;;;;;;;;;;6275812;28;19950;-67
2023/07/29 02:14:28;;;;;;;;;;;;;;;;;;6284694;28;20287;-67
2023/07/29 02:17:28;;;;;;;;;;;;;;;;;;6283348;28;19947;-65
2023/07/29 02:20:29;;;;;;;;;;;;;;;;;;6298254;28;19945;-67
2023/07/29 02:23:29;;;;;;;;;;;;;;;;;;6281984;28;20310;-64
2023/07/29 02:26:30;;;;;;;;;;;;;;;;;;6291891;28;19951;-67
2023/07/29 02:29:30;;;;;;;;;;;;;;;;;;6284498;28;19940;-68
2023/07/29 02:32:31;;;;;;;;;;;;;;;;;;6268796;28;19931;-68
2023/07/29 02:35:31;;;;;;;;;;;;;;;;;;6271357;28;19931;-66
2023/07/29 02:38:32;;;;;;;;;;;;;;;;;;6271821;28;19944;-63
2023/07/29 02:41:32;;;;;;;;;;;;;;;;;;6271273;28;19924;-66
2023/07/29 02:44:33;;;;;;;;;;;;;;;;;;6271584;28;20567;-65
2023/07/29 02:47:33;;;;;;;;;;;;;;;;;;6274406;28;19928;-66
2023/07/29 02:50:34;;;;;;;;;;;;;;;;;;6268660;28;19970;-66
2023/07/29 02:53:36;;;;;;;;;;;;;;;;;;6273000;28;19932;-66
2023/07/29 02:56:37;;;;;;;;;;;;;;;;;;6271417;28;19920;-63
2023/07/29 02:59:37;;;;;;;;;;;;;;;;;;6271412;28;19943;-65
2023/07/29 03:02:38;;;;;;;;;;;;;;;;;;6267311;28;19963;-66
2023/07/29 03:05:38;;;;;;;;;;;;;;;;;;6270152;28;19924;-66
2023/07/29 03:08:39;;;;;;;;;;;;;;;;;;6271543;28;19921;-67
2023/07/29 03:11:39;;;;;;;;;;;;;;;;;;6270409;28;19939;-66
2023/07/29 03:14:41;;;;;;;;;;;;;;;;;;6271480;28;20459;-62
2023/07/29 03:17:41;;;;;;;;;;;;;;;;;;6275922;28;19979;-64
2023/07/29 03:20:42;;;;;;;;;;;;;;;;;;6270650;28;19920;-66
2023/07/29 03:23:42;;;;;;;;;;;;;;;;;;6268507;28;19928;-66
2023/07/29 03:26:43;;;;;;;;;;;;;;;;;;6270090;28;19927;-67
2023/07/29 03:29:43;;;;;;;;;;;;;;;;;;6269887;28;19935;-67
2023/07/29 03:32:45;;;;;;;;;;;;;;;;;;6270698;28;19932;-65
2023/07/29 03:35:45;;;;;;;;;;;;;;;;;;6271852;28;20019;-67
2023/07/29 03:38:46;;;;;;;;;;;;;;;;;;6273432;28;20319;-67
2023/07/29 03:41:46;;;;;;;;;;;;;;;;;;6287221;28;19928;-67
2023/07/29 03:44:47;;;;;;;;;;;;;;;;;;6284295;28;20303;-66
2023/07/29 03:47:47;;;;;;;;;;;;;;;;;;6271629;28;19925;-67
2023/07/29 03:50:48;;;;;;;;;;;;;;;;;;6270170;28;19929;-67
2023/07/29 03:53:48;;;;;;;;;;;;;;;;;;6270769;28;19942;-65
2023/07/29 03:56:49;;;;;;;;;;;;;;;;;;6269394;28;20251;-67
2023/07/29 03:59:49;;;;;;;;;;;;;;;;;;6269763;28;20263;-67
2023/07/29 04:02:50;;;;;;;;;;;;;;;;;;6285209;28;19946;-64
2023/07/29 04:05:51;;;;;;;;;;;;;;;;;;6284794;28;19928;-68
2023/07/29 04:08:51;;;;;;;;;;;;;;;;;;6275397;28;19959;-67
2023/07/29 04:11:52;;;;;;;;;;;;;;;;;;6269320;28;19920;-65
2023/07/29 04:14:52;;;;;;;;;;;;;;;;;;6269008;28;19938;-67
2023/07/29 04:17:53;;;;;;;;;;;;;;;;;;6270746;28;19925;-66
2023/07/29 04:20:53;;;;;;;;;;;;;;;;;;6270223;28;20412;-66
2023/07/29 04:23:54;;;;;;;;;;;;;;;;;;6267811;28;20507;-67
2023/07/29 04:26:54;;;;;;;;;;;;;;;;;;6270443;28;19936;-67
2023/07/29 04:29:55;;;;;;;;;;;;;;;;;;6270357;28;20375;-68
2023/07/29 04:32:55;;;;;;;;;;;;;;;;;;6276126;28;19920;-67
2023/07/29 04:35:56;;;;;;;;;;;;;;;;;;6269903;28;19921;-68
2023/07/29 04:38:56;;;;;;;;;;;;;;;;;;6268895;28;19931;-67
2023/07/29 04:41:57;;;;;;;;;;;;;;;;;;6269099;28;19966;-68
2023/07/29 04:44:58;;;;;;;;;;;;;;;;;;6270150;28;19925;-63
2023/07/29 04:47:58;;;;;;;;;;;;;;;;;;6270206;28;20371;-66
2023/07/29 04:50:59;;;;;;;;;;;;;;;;;;6268270;28;20346;-65
2023/07/29 04:53:59;;;;;;;;;;;;;;;;;;6269921;28;19929;-66
2023/07/29 04:57:00;;;;;;;;;;;;;;;;;;6267575;28;19929;-67
2023/07/29 05:00:00;;;;;;;;;;;;;;;;;;6265991;28;20313;-65
2023/07/29 05:03:01;;;;;;;;;;;;;;;;;;6277379;28;19928;-66
2023/07/29 05:06:01;;;;;;;;;;;;;;;;;;6269371;28;19920;-64
2023/07/29 05:09:15;;;;;;;;;;;;;;;;;;6268220;28;19931;-68
2023/07/29 05:12:15;;;;;;;;;;;;;;;;;;6266051;28;19928;-63
2023/07/29 05:15:16;;;;;;;;;;;;;;;;;;6269627;28;19920;-67
2023/07/29 05:18:17;;;;;;;;;;;;;;;;;;6268615;28;20028;-67
2023/07/29 05:21:18;;;;;;;;;;;;;;;;;;6267712;28;19925;-64
2023/07/29 05:24:18;;;;;;;;;;;;;;;;;;6267446;28;20314;-63
2023/07/29 05:27:19;;;;;;;;;;;;;;;;;;6291442;28;19924;-67
2023/07/29 05:30:19;;;;;;;;;;;;;;;;;;6290007;28;19920;-68
2023/07/29 05:33:20;;;;;;;;;;;;;;;;;;6279157;28;20388;-64
2023/07/29 05:36:20;;;;;;;;;;;;;;;;;;6283741;28;19932;-67
2023/07/29 05:39:21;;;;;;;;;;;;;;;;;;6291190;28;20019;-68
2023/07/29 05:42:21;;;;;;;;;;;;;;;;;;6283985;28;20319;-62
2023/07/29 05:45:22;;;;;;;;;;;;;;;;;;6290827;28;19924;-72
2023/07/29 05:48:23;;;;;;;;;;;;;;;;;;6291311;28;19973;-62
2023/07/29 05:51:23;;;;;;;;;;;;;;;;;;6292566;28;19927;-58
2023/07/29 05:54:23;;;;;;;;;;;;;;;;;;6296077;28;19928;-59
2023/07/29 05:57:24;;;;;;;;;;;;;;;;;;6295259;28;20568;-60
2023/07/29 06:00:25;;;;;;;;;;;;;;;;;;6293778;28;19932;-63
2023/07/29 06:03:25;;;;;;;;;;;;;;;;;;6295532;28;19924;-63
2023/07/29 06:06:26;;;;;;;;;;;;;;;;;;6293052;28;19996;-62
2023/07/29 06:09:26;;;;;;;;;;;;;;;;;;6292555;28;19924;-61
2023/07/29 06:12:27;;;;;;;;;;;;;;;;;;6294183;28;19997;-62
2023/07/29 06:15:27;;;;;;;;;;;;;;;;;;6294754;28;20396;-59
2023/07/29 06:18:28;;;;;;;;;;;;;;;;;;6292415;28;20005;-63
2023/07/29 06:21:28;;;;;;;;;;;;;;;;;;6277905;28;19944;-62
2023/07/29 06:24:29;;;;;;;;;;;;;;;;;;6293184;28;19924;-60
2023/07/29 06:27:29;;;;;;;;;;;;;;;;;;6287760;28;19921;-61
2023/07/29 06:30:30;;;;;;;;;;;;;;;;;;6286491;28;19927;-63
2023/07/29 06:33:30;;;;;;;;;;;;;;;;;;6291261;28;20019;-62
2023/07/29 06:36:31;;;;;;;;;;;;;;;;;;6294258;28;20387;-57
2023/07/29 06:39:32;;;;;;;;;;;;;;;;;;6293908;28;20287;-61
2023/07/29 06:42:32;;;;;;;;;;;;;;;;;;6288032;28;19921;-61
2023/07/29 06:45:33;;;;;;;;;;;;;;;;;;6269190;28;20023;-61
2023/07/29 06:48:33;;;;;;;;;;;;;;;;;;6269033;28;19928;-61
2023/07/29 06:51:35;;;;;;;;;;;;;;;;;;6267754;28;19936;-63
2023/07/29 06:54:35;;;;;;;;;;;;;;;;;;6293517;28;19978;-64
2023/07/29 06:57:36;;;;;;;;;;;;;;;;;;6293627;28;19948;-64
2023/07/29 07:00:36;;;;;;;;;;;;;;;;;;6292486;28;19924;-63
2023/07/29 07:03:37;;;;;;;;;;;;;;;;;;6292825;28;19932;-61
2023/07/29 07:06:37;;;;;;;;;;;;;;;;;;6293541;28;19924;-60
2023/07/29 07:09:38;;;;;;;;;;;;;;;;;;6276563;28;19929;-65
2023/07/29 07:12:39;;;;;;;;;;;;;;;;;;6316776;28;19928;-63
2023/07/29 07:15:39;;;;;;;;;;;;;;;;;;6281537;28;19928;-64
2023/07/29 07:18:40;;;;;;;;;;;;;;;;;;6267338;28;19924;-64
2023/07/29 07:21:40;;;;;;;;;;;;;;;;;;6266204;28;19920;-64
2023/07/29 07:24:41;;;;;;;;;;;;;;;;;;6267614;28;19955;-61
2023/07/29 07:27:41;;;;;;;;;;;;;;;;;;6268068;28;19924;-65
2023/07/29 07:30:42;;;;;;;;;;;;;;;;;;6277671;28;19932;-65
2023/07/29 07:33:42;;;;;;;;;;;;;;;;;;6279729;28;19938;-65
2023/07/29 07:36:43;;;;;;;;;;;;;;;;;;6269138;28;20011;-64
2023/07/29 07:39:43;;;;;;;;;;;;;;;;;;6269826;28;20287;-61
2023/07/29 07:42:44;;;;;;;;;;;;;;;;;;6273024;28;20286;-63
2023/07/29 07:45:44;;;;;;;;;;;;;;;;;;6283008;28;19955;-64
2023/07/29 07:48:45;;;;;;;;;;;;;;;;;;6277140;28;19920;-60
2023/07/29 07:51:45;;;;;;;;;;;;;;;;;;6284578;28;20217;-62
2023/07/29 07:54:51;;;;;;;;;;;;;;;;;;6283970;28;20363;-65
2023/07/29 07:57:52;;;;;;;;;;;;;;;;;;6279113;28;20224;-64
2023/07/29 08:00:52;;;;;;;;;;;;;;;;;;6268557;28;19932;-65
2023/07/29 08:03:52;;;;;;;;;;;;;;;;;;6276984;28;19927;-65
2023/07/29 08:06:53;;;;;;;;;;;;;;;;;;6277114;28;20003;-65
2023/07/29 08:09:53;;;;;;;;;;;;;;;;;;6284177;28;19924;-65
2023/07/29 08:12:54;;;;;;;;;;;;;;;;;;6291934;28;19934;-67
2023/07/29 08:15:54;;;;;;;;;;;;;;;;;;6292034;28;19932;-64
2023/07/29 08:18:55;;;;;;;;;;;;;;;;;;6291307;28;20359;-66
2023/07/29 08:21:56;;;;;;;;;;;;;;;;;;6291714;28;20408;-63
2023/07/29 08:24:56;;;;;;;;;;;;;;;;;;6291629;28;19931;-67
2023/07/29 08:27:57;;;;;;;;;;;;;;;;;;6291904;28;19966;-65
2023/07/29 08:30:58;;;;;;;;;;;;;;;;;;6290565;28;20343;-64
2023/07/29 08:33:59;;;;;;;;;;;;;;;;;;6291072;28;19924;-63
2023/07/29 08:37:00;;;;;;;;;;;;;;;;;;6292328;28;19925;-65
2023/07/29 08:40:00;;;;;;;;;;;;;;;;;;6290038;28;20034;-66
2023/07/29 08:43:05;;;;;;;;;;;;;;;;;;6282844;28;19925;-64
2023/07/29 08:46:06;;;;;;;;;;;;;;;;;;6287624;28;20062;-65
2023/07/29 08:49:07;;;;;;;;;;;;;;;;;;6290380;28;19924;-66
2023/07/29 08:52:08;;;;;;;;;;;;;;;;;;6284438;28;19921;-66
2023/07/29 08:55:09;;;;;;;;;;;;;;;;;;6285921;28;19920;-65
2023/07/29 08:58:10;;;;;;;;;;;;;;;;;;6291847;28;20000;-67
2023/07/29 09:01:11;;;;;;;;;;;;;;;;;;6290363;28;19920;-65
2023/07/29 09:04:12;;;;;;;;;;;;;;;;;;6291001;28;19948;-67
2023/07/29 09:07:12;;;;;;;;;;;;;;;;;;6291710;27;19927;-66
2023/07/29 09:10:13;;;;;;;;;;;;;;;;;;6277078;28;19971;-67
2023/07/29 09:13:14;;;;;;;;;;;;;;;;;;6274834;28;20002;-64
2023/07/29 09:16:14;;;;;;;;;;;;;;;;;;6275758;28;19931;-65
2023/07/29 09:19:15;;;;;;;;;;;;;;;;;;6276723;28;20298;-66
2023/07/29 09:22:20;;;;;;;;;;;;;;;;;;6276716;28;19974;-66
2023/07/29 09:25:27;;;;;;;;;;;;;;;;;;6278231;28;19929;-65
2023/07/29 09:28:31;;;;;;;;;;;;;;;;;;6291313;28;20367;-67
2023/07/29 09:31:32;;;;;;;;;;;;;;;;;;6281196;28;19924;-67
2023/07/29 09:34:40;;;;;;;;;;;;;;;;;;6290321;28;19924;-65
2023/07/29 09:37:41;;;;;;;;;;;;;;;;;;6289626;28;19928;-66
2023/07/29 09:40:43;;;;;;;;;;;;;;;;;;6289174;28;20037;-65
2023/07/29 09:43:43;;;;;;;;;;;;;;;;;;6277996;28;19925;-65
2023/07/29 09:46:45;;;;;;;;;;;;;;;;;;6281254;28;19936;-66
2023/07/29 09:49:46;;;;;;;;;;;;;;;;;;6285554;28;19925;-66
2023/07/29 09:52:48;;;;;;;;;;;;;;;;;;6277730;28;19920;-67
2023/07/29 09:55:50;;;;;;;;;;;;;;;;;;6284933;28;19927;-67
2023/07/29 09:58:51;;;;;;;;;;;;;;;;;;6283341;28;20026;-67
2023/07/29 10:01:51;;;;;;;;;;;;;;;;;;6281124;28;19921;-67
2023/07/29 10:04:52;;;;;;;;;;;;;;;;;;6290467;28;19921;-65
2023/07/29 10:07:53;;;;;;;;;;;;;;;;;;6288771;28;19928;-63
2023/07/29 10:10:54;;;;;;;;;;;;;;;;;;6283921;28;19921;-63
2023/07/29 10:13:54;;;;;;;;;;;;;;;;;;6284232;28;19924;-62
2023/07/29 10:16:55;;;;;;;;;;;;;;;;;;6286569;28;20015;-62
2023/07/29 10:19:57;;;;;;;;;;;;;;;;;;6278769;28;19928;-63
2023/07/29 10:22:59;;;;;;;;;;;;;;;;;;6283549;28;20010;-63
2023/07/29 10:26:04;;;;;;;;;;;;;;;;;;6288024;28;20402;-62
2023/07/29 10:29:08;;;;;;;;;;;;;;;;;;6282216;28;19981;-64
2023/07/29 10:32:10;;;;;;;;;;;;;;;;;;6278305;28;19956;-63
2023/07/29 10:35:14;;;;;;;;;;;;;;;;;;6283683;28;19920;-65
2023/07/29 10:38:15;;;;;;;;;;;;;;;;;;6279329;28;19920;-60
2023/07/29 10:41:15;;;;;;;;;;;;;;;;;;6284189;28;19928;-66
2023/07/29 10:44:34;;;;;;;;;;;;;;;;;;6285311;28;19932;-60
2023/07/29 10:47:35;;;;;;;;;;;;;;;;;;6284515;28;19929;-60
2023/07/29 10:50:36;;;;;;;;;;;;;;;;;;6282830;28;20357;-61
2023/07/29 10:53:37;;;;;;;;;;;;;;;;;;6280633;28;19975;-61
2023/07/29 10:56:41;;;;;;;;;;;;;;;;;;6294621;28;20310;-61
2023/07/29 10:59:54;;;;;;;;;;;;;;;;;;6280030;28;19924;-63
2023/07/29 11:03:02;;;;;;;;;;;;;;;;;;6286805;28;20023;-63
2023/07/29 11:06:04;;;;;;;;;;;;;;;;;;6274358;28;19962;-65
2023/07/29 11:09:24;;;;;;;;;;;;;;;;;;6285911;28;19929;-62
2023/07/29 11:12:33;;;;;;;;;;;;;;;;;;6283801;28;20375;-65
2023/07/29 11:15:34;;;;;;;;;;;;;;;;;;6285556;28;19921;-61
2023/07/29 11:18:35;;;;;;;;;;;;;;;;;;6286969;28;20401;-59
2023/07/29 11:21:36;;;;;;;;;;;;;;;;;;6281774;28;19921;-65
2023/07/29 11:24:36;;;;;;;;;;;;;;;;;;6277448;28;19927;-61
2023/07/29 11:27:37;;;;;;;;;;;;;;;;;;6276533;28;20268;-59
2023/07/29 11:30:40;;;;;;;;;;;;;;;;;;6282117;28;20341;-59
2023/07/29 11:33:41;;;;;;;;;;;;;;;;;;6281886;28;20023;-60
2023/07/29 11:36:45;;;;;;;;;;;;;;;;;;6276404;28;20385;-59
2023/07/29 11:39:45;;;;;;;;;;;;;;;;;;6285998;28;19929;-64
2023/07/29 11:42:46;;;;;;;;;;;;;;;;;;6281346;28;19924;-64
2023/07/29 11:45:47;;;;;;;;;;;;;;;;;;6278810;28;20019;-60
2023/07/29 11:48:47;;;;;;;;;;;;;;;;;;6278813;28;19920;-62
2023/07/29 11:51:48;;;;;;;;;;;;;;;;;;6291985;28;20352;-64
2023/07/29 11:54:49;;;;;;;;;;;;;;;;;;6282586;28;19995;-61
2023/07/29 11:57:52;;;;;;;;;;;;;;;;;;6281264;27;20295;-61
2023/07/29 12:00:52;;;;;;;;;;;;;;;;;;6288137;28;20375;-64
2023/07/29 12:03:53;;;;;;;;;;;;;;;;;;6284474;28;19921;-66
2023/07/29 12:06:54;;;;;;;;;;;;;;;;;;6272387;28;19924;-66
2023/07/29 12:09:54;;;;;;;;;;;;;;;;;;6281892;28;19926;-66
2023/07/29 12:12:55;;;;;;;;;;;;;;;;;;6278084;28;19925;-62
2023/07/29 12:16:02;;;;;;;;;;;;;;;;;;6285028;28;19973;-63
2023/07/29 12:19:03;;;;;;;;;;;;;;;;;;6280414;28;19921;-62
2023/07/29 12:22:05;;;;;;;;;;;;;;;;;;6280358;28;19925;-64
2023/07/29 12:25:06;;;;;;;;;;;;;;;;;;6281725;28;20460;-65
2023/07/29 12:28:06;;;;;;;;;;;;;;;;;;6277265;28;19925;-65
2023/07/29 12:31:07;;;;;;;;;;;;;;;;;;6275792;28;20265;-62
2023/07/29 12:34:08;;;;;;;;;;;;;;;;;;6280482;28;19925;-65
2023/07/29 12:37:08;;;;;;;;;;;;;;;;;;6267326;28;20003;-67
2023/07/29 12:40:29;;;;;;;;;;;;;;;;;;6267317;28;19932;-61
2023/07/29 12:43:30;;;;;;;;;;;;;;;;;;6271068;28;19927;-61
2023/07/29 12:46:30;;;;;;;;;;;;;;;;;;6268867;28;19972;-61
2023/07/29 12:49:31;;;;;;;;;;;;;;;;;;6265342;28;19920;-59
2023/07/29 12:52:32;;;;;;;;;;;;;;;;;;6264229;28;20352;-60
2023/07/29 12:55:32;;;;;;;;;;;;;;;;;;6264026;28;19920;-60
2023/07/29 12:58:33;;;;;;;;;;;;;;;;;;6266641;28;20360;-60
2023/07/29 13:01:33;;;;;;;;;;;;;;;;;;6268964;28;20393;-59
2023/07/29 13:04:34;;;;;;;;;;;;;;;;;;6270710;28;19929;-60
2023/07/29 13:07:34;;;;;;;;;;;;;;;;;;6268892;28;19925;-61
2023/07/29 13:10:35;;;;;;;;;;;;;;;;;;6269708;28;20429;-60
2023/07/29 13:13:35;;;;;;;;;;;;;;;;;;6270576;28;19920;-64
2023/07/29 13:16:36;;;;;;;;;;;;;;;;;;6269177;28;19921;-59
2023/07/29 13:19:37;;;;;;;;;;;;;;;;;;6270817;28;19925;-61
2023/07/29 13:22:37;;;;;;;;;;;;;;;;;;6270198;28;19935;-60
2023/07/29 13:25:37;;;;;;;;;;;;;;;;;;6269200;28;19924;-60
2023/07/29 13:28:38;;;;;;;;;;;;;;;;;;6278679;28;19931;-61
2023/07/29 13:31:38;;;;;;;;;;;;;;;;;;6286400;28;19928;-60
2023/07/29 13:34:39;;;;;;;;;;;;;;;;;;6286867;28;19970;-63
2023/07/29 13:37:40;;;;;;;;;;;;;;;;;;6286771;28;20011;-65
2023/07/29 13:40:41;;;;;;;;;;;;;;;;;;6285102;28;19924;-61
2023/07/29 13:43:41;;;;;;;;;;;;;;;;;;6286027;28;19924;-59
2023/07/29 13:46:41;;;;;;;;;;;;;;;;;;6284976;28;19932;-60
2023/07/29 13:49:42;;;;;;;;;;;;;;;;;;6282538;28;19928;-61
2023/07/29 13:52:42;;;;;;;;;;;;;;;;;;6286103;28;20026;-66
2023/07/29 13:55:43;;;;;;;;;;;;;;;;;;6284586;28;19928;-61
2023/07/29 13:58:44;;;;;;;;;;;;;;;;;;6282646;28;19932;-60
2023/07/29 14:01:44;;;;;;;;;;;;;;;;;;6285195;28;19963;-63
2023/07/29 14:04:45;;;;;;;;;;;;;;;;;;6284078;28;20318;-62
2023/07/29 14:07:45;;;;;;;;;;;;;;;;;;6284660;28;19993;-61
2023/07/29 14:10:46;;;;;;;;;;;;;;;;;;6278939;28;19990;-63
2023/07/29 14:13:46;;;;;;;;;;;;;;;;;;6283305;28;20450;-61
2023/07/29 14:16:47;;;;;;;;;;;;;;;;;;6283912;28;20352;-64
2023/07/29 14:19:47;;;;;;;;;;;;;;;;;;6282653;28;20357;-63
2023/07/29 14:22:48;;;;;;;;;;;;;;;;;;6282755;28;20417;-63
2023/07/29 14:25:48;;;;;;;;;;;;;;;;;;6283434;28;20023;-61
2023/07/29 14:28:49;;;;;;;;;;;;;;;;;;6283796;28;19971;-61
2023/07/29 14:31:50;;;;;;;;;;;;;;;;;;6281929;28;20344;-62
2023/07/29 14:34:50;;;;;;;;;;;;;;;;;;6284883;28;20003;-65
2023/07/29 14:37:51;;;;;;;;;;;;;;;;;;6283049;28;20051;-64
2023/07/29 14:40:54;;;;;;;;;;;;;;;;;;6281560;28;19928;-60
2023/07/29 14:43:55;;;;;;;;;;;;;;;;;;6275606;28;20327;-61
2023/07/29 14:46:55;;;;;;;;;;;;;;;;;;6273440;28;19928;-61
2023/07/29 14:49:56;;;;;;;;;;;;;;;;;;6276979;28;19928;-61
2023/07/29 14:52:56;;;;;;;;;;;;;;;;;;6273207;28;19928;-66
2023/07/29 14:55:56;;;;;;;;;;;;;;;;;;6275251;28;19932;-65
2023/07/29 14:58:57;;;;;;;;;;;;;;;;;;6271810;28;19933;-65
2023/07/29 15:01:58;;;;;;;;;;;;;;;;;;6275177;28;19939;-62
2023/07/29 15:04:58;;;;;;;;;;;;;;;;;;6275329;28;19939;-66
2023/07/29 15:07:59;;;;;;;;;;;;;;;;;;6273862;28;20027;-64
2023/07/29 15:10:59;;;;;;;;;;;;;;;;;;6269620;28;19924;-62
2023/07/29 15:14:00;;;;;;;;;;;;;;;;;;6273829;28;20323;-63
2023/07/29 15:17:00;;;;;;;;;;;;;;;;;;6272247;28;19952;-63
2023/07/29 15:20:01;;;;;;;;;;;;;;;;;;6269980;28;20043;-62
2023/07/29 15:23:02;;;;;;;;;;;;;;;;;;6272911;28;19936;-63
2023/07/29 15:26:02;;;;;;;;;;;;;;;;;;6274698;28;20420;-62
2023/07/29 15:29:03;;;;;;;;;;;;;;;;;;6273458;28;20326;-61
2023/07/29 15:32:04;;;;;;;;;;;;;;;;;;6273583;28;20001;-62
2023/07/29 15:35:04;;;;;;;;;;;;;;;;;;6272559;28;20316;-65
2023/07/29 15:38:05;;;;;;;;;;;;;;;;;;6272144;28;19924;-61
2023/07/29 15:41:05;;;;;;;;;;;;;;;;;;6271836;28;19951;-62
2023/07/29 15:44:06;;;;;;;;;;;;;;;;;;6272505;28;20286;-63
2023/07/29 15:47:07;;;;;;;;;;;;;;;;;;6270730;28;20431;-63
2023/07/29 15:50:07;;;;;;;;;;;;;;;;;;6269522;28;20661;-62
2023/07/29 15:53:08;;;;;;;;;;;;;;;;;;6277310;28;20348;-64
2023/07/29 15:56:09;;;;;;;;;;;;;;;;;;6272818;28;19928;-63
2023/07/29 15:59:10;;;;;;;;;;;;;;;;;;6271376;28;19928;-60
2023/07/29 16:02:10;;;;;;;;;;;;;;;;;;6273800;28;19935;-63
2023/07/29 16:05:11;;;;;;;;;;;;;;;;;;6272109;28;20339;-64
2023/07/29 16:08:12;;;;;;;;;;;;;;;;;;6272649;28;19935;-63
2023/07/29 16:11:13;;;;;;;;;;;;;;;;;;6271370;28;19936;-63
2023/07/29 16:14:14;;;;;;;;;;;;;;;;;;6275210;28;19924;-63
2023/07/29 16:17:14;;;;;;;;;;;;;;;;;;6276522;28;19924;-66
2023/07/29 16:20:15;;;;;;;;;;;;;;;;;;6274170;28;19938;-64
2023/07/29 16:23:16;;;;;;;;;;;;;;;;;;6281537;28;19935;-64
2023/07/29 16:26:17;;;;;;;;;;;;;;;;;;6289637;28;19928;-68
2023/07/29 16:29:17;;;;;;;;;;;;;;;;;;6283960;28;20417;-65
2023/07/29 16:32:18;;;;;;;;;;;;;;;;;;6283652;28;19950;-63
2023/07/29 16:35:19;;;;;;;;;;;;;;;;;;6289368;28;20051;-65
2023/07/29 16:38:20;;;;;;;;;;;;;;;;;;6287405;28;21461;-62
2023/07/29 16:41:20;;;;;;;;;;;;;;;;;;6289858;28;20299;-63
2023/07/29 16:44:21;;;;;;;;;;;;;;;;;;6294539;28;19935;-61
2023/07/29 16:47:23;;;;;;;;;;;;;;;;;;6289302;28;20035;-64
2023/07/29 16:50:24;;;;;;;;;;;;;;;;;;6290493;28;19920;-64
2023/07/29 16:53:25;;;;;;;;;;;;;;;;;;6288993;28;19931;-64
2023/07/29 16:56:25;;;;;;;;;;;;;;;;;;6287564;28;19936;-64
2023/07/29 16:59:26;;;;;;;;;;;;;;;;;;6289440;28;20136;-63
2023/07/29 17:02:26;;;;;;;;;;;;;;;;;;6292512;28;20375;-66
2023/07/29 17:05:27;;;;;;;;;;;;;;;;;;6288304;28;20390;-63
2023/07/29 17:08:27;;;;;;;;;;;;;;;;;;6287522;28;20424;-66
2023/07/29 17:11:28;;;;;;;;;;;;;;;;;;6287833;28;19981;-63
2023/07/29 17:14:28;;;;;;;;;;;;;;;;;;6292867;28;20374;-64
2023/07/29 17:17:29;;;;;;;;;;;;;;;;;;6292851;28;19924;-61
2023/07/29 17:20:30;;;;;;;;;;;;;;;;;;6291984;28;20073;-65
2023/07/29 17:23:30;;;;;;;;;;;;;;;;;;6288217;28;19928;-63
2023/07/29 17:26:31;;;;;;;;;;;;;;;;;;6288148;28;20388;-63
2023/07/29 17:29:31;;;;;;;;;;;;;;;;;;6285438;28;19928;-63
2023/07/29 17:32:32;;;;;;;;;;;;;;;;;;6291643;28;20018;-64
2023/07/29 17:35:32;;;;;;;;;;;;;;;;;;6287807;28;19924;-62
2023/07/29 17:38:33;;;;;;;;;;;;;;;;;;6289754;28;19928;-60
2023/07/29 17:41:33;;;;;;;;;;;;;;;;;;6293032;28;19925;-63
2023/07/29 17:44:34;;;;;;;;;;;;;;;;;;6292776;28;19925;-64
2023/07/29 17:47:34;;;;;;;;;;;;;;;;;;6295010;28;19974;-64
2023/07/29 17:50:35;;;;;;;;;;;;;;;;;;6292786;28;20417;-61
2023/07/29 17:53:35;;;;;;;;;;;;;;;;;;6298649;28;20386;-61
2023/07/29 17:56:36;;;;;;;;;;;;;;;;;;6297410;28;19930;-61
2023/07/29 17:59:37;;;;;;;;;;;;;;;;;;6295003;28;19947;-60
2023/07/29 18:02:38;;;;;;;;;;;;;;;;;;6292028;28;19978;-62
2023/07/29 18:05:39;;;;;;;;;;;;;;;;;;6294307;28;20383;-63
2023/07/29 18:08:40;;;;;;;;;;;;;;;;;;6291912;28;20507;-61
2023/07/29 18:11:41;;;;;;;;;;;;;;;;;;6297674;28;19945;-61
2023/07/29 18:14:42;;;;;;;;;;;;;;;;;;6296526;28;20390;-64
2023/07/29 18:17:42;;;;;;;;;;;;;;;;;;6297196;28;20418;-63
2023/07/29 18:20:44;;;;;;;;;;;;;;;;;;6289962;28;20512;-64
2023/07/29 18:23:44;;;;;;;;;;;;;;;;;;6295301;28;19975;-65
2023/07/29 18:26:45;;;;;;;;;;;;;;;;;;6296130;28;19934;-65
2023/07/29 18:29:45;;;;;;;;;;;;;;;;;;6291707;28;19924;-62
2023/07/29 18:32:46;;;;;;;;;;;;;;;;;;6293982;28;19923;-65
2023/07/29 18:35:46;;;;;;;;;;;;;;;;;;6293916;28;19923;-67
2023/07/29 18:38:47;;;;;;;;;;;;;;;;;;6292386;28;20378;-66
2023/07/29 18:41:47;;;;;;;;;;;;;;;;;;6294847;28;19931;-66
2023/07/29 18:44:48;;;;;;;;;;;;;;;;;;6294959;28;19928;-66
2023/07/29 18:47:49;;;;;;;;;;;;;;;;;;6290832;28;19928;-63
2023/07/29 18:50:50;;;;;;;;;;;;;;;;;;6281741;28;20047;-65
2023/07/29 18:53:50;;;;;;;;;;;;;;;;;;6284462;28;19929;-63
2023/07/29 18:56:51;;;;;;;;;;;;;;;;;;6276461;28;19929;-65
2023/07/29 18:59:51;;;;;;;;;;;;;;;;;;6278539;28;19928;-61
2023/07/29 19:02:53;;;;;;;;;;;;;;;;;;6277964;28;20456;-65
2023/07/29 19:05:57;;;;;;;;;;;;;;;;;;6277595;28;19928;-61
2023/07/29 19:08:57;;;;;;;;;;;;;;;;;;6277051;28;20294;-62
2023/07/29 19:11:57;;;;;;;;;;;;;;;;;;6282783;28;19931;-65
2023/07/29 19:14:58;;;;;;;;;;;;;;;;;;6274457;28;19928;-63
2023/07/29 19:17:59;;;;;;;;;;;;;;;;;;6278574;28;19928;-65
2023/07/29 19:21:00;;;;;;;;;;;;;;;;;;6278852;28;20401;-64
2023/07/29 19:24:00;;;;;;;;;;;;;;;;;;6279491;28;19928;-64
2023/07/29 19:27:03;;;;;;;;;;;;;;;;;;6275831;28;19924;-61
2023/07/29 19:30:04;;;;;;;;;;;;;;;;;;6277481;28;19978;-65
2023/07/29 19:33:04;;;;;;;;;;;;;;;;;;6282910;28;19927;-63
2023/07/29 19:36:06;;;;;;;;;;;;;;;;;;6279860;28;19927;-65
2023/07/29 19:39:06;;;;;;;;;;;;;;;;;;6275861;28;19925;-61
2023/07/29 19:42:07;;;;;;;;;;;;;;;;;;6273215;28;20453;-63
2023/07/29 19:45:08;;;;;;;;;;;;;;;;;;6272687;28;20002;-61
2023/07/29 19:48:08;;;;;;;;;;;;;;;;;;6273312;28;19924;-64
2023/07/29 19:51:09;;;;;;;;;;;;;;;;;;6272641;28;19924;-63
2023/07/29 19:54:09;;;;;;;;;;;;;;;;;;6272681;28;19920;-64
2023/07/29 19:57:10;;;;;;;;;;;;;;;;;;6272097;28;19925;-60
2023/07/29 20:00:10;;;;;;;;;;;;;;;;;;6271444;28;19921;-64
2023/07/29 20:03:11;;;;;;;;;;;;;;;;;;6272945;28;19935;-65
2023/07/29 20:06:11;;;;;;;;;;;;;;;;;;6270976;28;20966;-63
2023/07/29 20:09:12;;;;;;;;;;;;;;;;;;6270200;28;19948;-63
2023/07/29 20:12:12;;;;;;;;;;;;;;;;;;6271997;28;20164;-65
2023/07/29 20:15:13;;;;;;;;;;;;;;;;;;6269215;28;19924;-61
2023/07/29 20:18:14;;;;;;;;;;;;;;;;;;6270365;28;20354;-61
2023/07/29 20:21:14;;;;;;;;;;;;;;;;;;6270622;28;19964;-65
2023/07/29 20:24:15;;;;;;;;;;;;;;;;;;6271934;28;19935;-65
2023/07/29 20:27:15;;;;;;;;;;;;;;;;;;6270856;28;19924;-65
2023/07/29 20:30:16;;;;;;;;;;;;;;;;;;6271037;28;19928;-64
2023/07/29 20:33:16;;;;;;;;;;;;;;;;;;6270601;28;19924;-65
2023/07/29 20:36:17;;;;;;;;;;;;;;;;;;6270568;28;19929;-64